sensor_id;sensor_type;location;lat;lon;timestamp;pressure;altitude;pressure_sealevel;temperature;humidity
15750;BME280;7976;52.526;13.326;2022-11-20T00:00:39;100735.09;;;2.25;97.30
15750;BME280;7976;52.526;13.326;2022-11-20T00:03:06;100730.78;;;2.21;96.99
15750;BME280;7976;52.526;13.326;2022-11-20T00:05:33;100739.44;;;2.16;96.95
15750;BME280;7976;52.526;13.326;2022-11-20T00:08:00;100729.97;;;2.13;97.12
15750;BME280;7976;52.526;13.326;2022-11-20T00:10:29;100732.53;;;2.13;97.03
15750;BME280;7976;52.526;13.326;2022-11-20T00:12:58;100721.38;;;2.16;97.11
15750;BME280;7976;52.526;13.326;2022-11-20T00:15:28;100729.13;;;2.16;97.02
15750;BME280;7976;52.526;13.326;2022-11-20T00:17:55;100725.66;;;2.14;96.88
15750;BME280;7976;52.526;13.326;2022-11-20T00:20:23;100722.19;;;2.18;96.96
15750;BME280;7976;52.526;13.326;2022-11-20T00:22:50;100724.78;;;2.21;96.97
15750;BME280;7976;52.526;13.326;2022-11-20T00:25:18;100726.47;;;2.26;97.00
15750;BME280;7976;52.526;13.326;2022-11-20T00:27:47;100724.72;;;2.34;96.66
15750;BME280;7976;52.526;13.326;2022-11-20T00:30:14;100730.72;;;2.41;96.94
15750;BME280;7976;52.526;13.326;2022-11-20T00:32:41;100725.56;;;2.36;96.27
15750;BME280;7976;52.526;13.326;2022-11-20T00:35:08;100729.91;;;2.30;96.25
15750;BME280;7976;52.526;13.326;2022-11-20T00:37:35;100719.63;;;2.16;96.22
15750;BME280;7976;52.526;13.326;2022-11-20T00:40:03;100729.94;;;2.19;95.99
15750;BME280;7976;52.526;13.326;2022-11-20T00:42:30;100728.25;;;2.15;96.18
15750;BME280;7976;52.526;13.326;2022-11-20T00:44:59;100727.41;;;2.12;96.23
15750;BME280;7976;52.526;13.326;2022-11-20T00:47:26;100733.41;;;2.09;96.45
15750;BME280;7976;52.526;13.326;2022-11-20T00:49:53;100729.13;;;2.08;96.12
15750;BME280;7976;52.526;13.326;2022-11-20T00:52:20;100729.97;;;2.10;96.09
15750;BME280;7976;52.526;13.326;2022-11-20T00:54:47;100720.53;;;2.06;95.92
15750;BME280;7976;52.526;13.326;2022-11-20T00:57:14;100718.81;;;2.05;95.81
15750;BME280;7976;52.526;13.326;2022-11-20T00:59:41;100719.66;;;2.04;95.75
15750;BME280;7976;52.526;13.326;2022-11-20T01:02:09;100726.56;;;2.07;95.81
15750;BME280;7976;52.526;13.326;2022-11-20T01:04:36;100724.84;;;1.98;95.35
15750;BME280;7976;52.526;13.326;2022-11-20T01:07:03;100721.41;;;1.96;95.57
15750;BME280;7976;52.526;13.326;2022-11-20T01:09:30;100720.56;;;1.99;95.73
15750;BME280;7976;52.526;13.326;2022-11-20T01:11:57;100739.47;;;1.98;95.58
15750;BME280;7976;52.526;13.326;2022-11-20T01:14:24;100729.16;;;2.01;95.67
15750;BME280;7976;52.526;13.326;2022-11-20T01:16:52;100727.44;;;2.06;95.50
15750;BME280;7976;52.526;13.326;2022-11-20T01:19:22;100732.56;;;2.09;95.53
15750;BME280;7976;52.526;13.326;2022-11-20T01:21:52;100723.09;;;2.06;95.20
15750;BME280;7976;52.526;13.326;2022-11-20T01:24:21;100719.69;;;2.09;95.09
15750;BME280;7976;52.526;13.326;2022-11-20T01:26:50;100715.38;;;2.11;95.21
15750;BME280;7976;52.526;13.326;2022-11-20T01:29:21;100712.78;;;2.06;94.92
15750;BME280;7976;52.526;13.326;2022-11-20T01:31:48;100722.28;;;2.00;94.82
15750;BME280;7976;52.526;13.326;2022-11-20T01:34:18;100710.25;;;1.99;94.96
15750;BME280;7976;52.526;13.326;2022-11-20T01:36:46;100711.09;;;2.01;94.92
15750;BME280;7976;52.526;13.326;2022-11-20T01:39:16;100709.38;;;2.01;94.71
15750;BME280;7976;52.526;13.326;2022-11-20T01:41:44;100708.50;;;1.99;94.45
15750;BME280;7976;52.526;13.326;2022-11-20T01:44:58;100711.13;;;1.93;94.49
15750;BME280;7976;52.526;13.326;2022-11-20T01:47:34;100699.94;;;1.90;94.23
15750;BME280;7976;52.526;13.326;2022-11-20T01:50:10;100706.81;;;1.89;94.42
15750;BME280;7976;52.526;13.326;2022-11-20T01:52:45;100696.50;;;1.97;94.60
15750;BME280;7976;52.526;13.326;2022-11-20T01:55:19;100712.84;;;1.96;94.27
15750;BME280;7976;52.526;13.326;2022-11-20T01:57:49;100699.94;;;1.99;94.39
15750;BME280;7976;52.526;13.326;2022-11-20T02:00:19;100698.22;;;2.01;94.28
15750;BME280;7976;52.526;13.326;2022-11-20T02:02:51;100705.03;;;2.06;94.30
15750;BME280;7976;52.526;13.326;2022-11-20T02:05:25;100704.19;;;2.10;94.34
15750;BME280;7976;52.526;13.326;2022-11-20T02:07:57;100704.19;;;2.10;94.26
15750;BME280;7976;52.526;13.326;2022-11-20T02:10:28;100710.19;;;2.14;94.10
15750;BME280;7976;52.526;13.326;2022-11-20T02:12:55;100698.13;;;2.17;94.12
15750;BME280;7976;52.526;13.326;2022-11-20T02:15:41;100696.44;;;2.13;93.81
15750;BME280;7976;52.526;13.326;2022-11-20T02:18:09;100695.56;;;2.10;93.71
15750;BME280;7976;52.526;13.326;2022-11-20T02:20:37;100696.44;;;2.10;93.59
15750;BME280;7976;52.526;13.326;2022-11-20T02:23:13;100688.69;;;2.10;93.74
15750;BME280;7976;52.526;13.326;2022-11-20T02:25:43;100684.41;;;2.05;93.46
15750;BME280;7976;52.526;13.326;2022-11-20T02:28:11;100680.13;;;1.98;93.57
15750;BME280;7976;52.526;13.326;2022-11-20T02:30:38;100689.63;;;1.91;93.45
15750;BME280;7976;52.526;13.326;2022-11-20T02:33:05;100676.75;;;1.88;93.35
15750;BME280;7976;52.526;13.326;2022-11-20T02:35:44;100685.34;;;1.83;93.60
15750;BME280;7976;52.526;13.326;2022-11-20T02:38:11;100687.09;;;1.82;93.77
15750;BME280;7976;52.526;13.326;2022-11-20T02:43:10;100687.94;;;1.87;93.71
15750;BME280;7976;52.526;13.326;2022-11-20T02:45:38;100685.34;;;1.87;93.38
15750;BME280;7976;52.526;13.326;2022-11-20T02:48:06;100681.03;;;1.88;93.36
15750;BME280;7976;52.526;13.326;2022-11-20T02:50:36;100687.03;;;1.91;93.42
15750;BME280;7976;52.526;13.326;2022-11-20T02:53:03;100683.63;;;1.92;93.21
15750;BME280;7976;52.526;13.326;2022-11-20T02:55:31;100683.59;;;1.95;93.43
15750;BME280;7976;52.526;13.326;2022-11-20T02:57:58;100679.28;;;1.94;93.18
15750;BME280;7976;52.526;13.326;2022-11-20T03:00:26;100681.88;;;1.91;93.23
15750;BME280;7976;52.526;13.326;2022-11-20T03:02:53;100677.56;;;1.95;93.19
15750;BME280;7976;52.526;13.326;2022-11-20T03:05:20;100683.59;;;1.95;93.09
15750;BME280;7976;52.526;13.326;2022-11-20T03:07:47;100679.28;;;2.00;92.90
15750;BME280;7976;52.526;13.326;2022-11-20T03:10:14;100675.84;;;2.06;93.04
15750;BME280;7976;52.526;13.326;2022-11-20T03:12:41;100674.97;;;2.05;93.03
15750;BME280;7976;52.526;13.326;2022-11-20T03:15:09;100668.97;;;2.00;92.82
15750;BME280;7976;52.526;13.326;2022-11-20T03:17:37;100673.22;;;2.04;92.99
15750;BME280;7976;52.526;13.326;2022-11-20T03:20:06;100673.25;;;2.07;92.85
15750;BME280;7976;52.526;13.326;2022-11-20T03:22:34;100667.19;;;2.11;92.88
15750;BME280;7976;52.526;13.326;2022-11-20T03:25:01;100672.34;;;2.13;92.71
15750;BME280;7976;52.526;13.326;2022-11-20T03:27:33;100669.75;;;2.11;92.36
15750;BME280;7976;52.526;13.326;2022-11-20T03:30:00;100669.81;;;2.05;92.34
15750;BME280;7976;52.526;13.326;2022-11-20T03:32:27;100667.28;;;1.90;92.10
15750;BME280;7976;52.526;13.326;2022-11-20T03:34:55;100670.72;;;1.88;92.62
15750;BME280;7976;52.526;13.326;2022-11-20T03:37:22;100662.13;;;1.89;92.30
15750;BME280;7976;52.526;13.326;2022-11-20T03:39:49;100671.59;;;1.85;92.33
15750;BME280;7976;52.526;13.326;2022-11-20T03:42:16;100666.44;;;1.85;92.74
15750;BME280;7976;52.526;13.326;2022-11-20T03:44:57;100656.13;;;1.85;92.47
15750;BME280;7976;52.526;13.326;2022-11-20T03:47:23;100651.81;;;1.87;92.55
15750;BME280;7976;52.526;13.326;2022-11-20T03:49:50;100650.97;;;1.87;92.63
15750;BME280;7976;52.526;13.326;2022-11-20T03:52:18;100657.84;;;1.83;92.46
15750;BME280;7976;52.526;13.326;2022-11-20T03:54:45;100659.53;;;1.84;92.57
15750;BME280;7976;52.526;13.326;2022-11-20T03:57:12;100660.41;;;1.92;92.62
15750;BME280;7976;52.526;13.326;2022-11-20T03:59:39;100658.69;;;1.96;92.64
15750;BME280;7976;52.526;13.326;2022-11-20T04:02:06;100655.19;;;2.03;92.26
15750;BME280;7976;52.526;13.326;2022-11-20T04:04:33;100649.19;;;2.04;92.23
15750;BME280;7976;52.526;13.326;2022-11-20T04:07:00;100658.59;;;2.08;92.02
15750;BME280;7976;52.526;13.326;2022-11-20T04:09:28;100656.88;;;2.08;92.15
15750;BME280;7976;52.526;13.326;2022-11-20T04:11:55;100652.59;;;2.07;91.84
15750;BME280;7976;52.526;13.326;2022-11-20T04:14:22;100646.59;;;2.05;91.82
15750;BME280;7976;52.526;13.326;2022-11-20T04:16:49;100652.59;;;2.07;91.89
15750;BME280;7976;52.526;13.326;2022-11-20T04:19:16;100652.59;;;2.07;92.03
15750;BME280;7976;52.526;13.326;2022-11-20T04:21:44;100659.50;;;1.99;91.54
15750;BME280;7976;52.526;13.326;2022-11-20T04:24:11;100656.94;;;1.93;91.58
15750;BME280;7976;52.526;13.326;2022-11-20T04:26:40;100654.41;;;1.87;91.75
15750;BME280;7976;52.526;13.326;2022-11-20T04:29:11;100662.16;;;1.87;91.91
15750;BME280;7976;52.526;13.326;2022-11-20T04:31:38;100653.50;;;1.93;92.02
15750;BME280;7976;52.526;13.326;2022-11-20T04:34:07;100661.22;;;2.00;91.86
15750;BME280;7976;52.526;13.326;2022-11-20T04:36:34;100650.00;;;2.04;91.69
15750;BME280;7976;52.526;13.326;2022-11-20T04:39:05;100646.56;;;2.07;91.69
15750;BME280;7976;52.526;13.326;2022-11-20T04:41:34;100649.13;;;2.11;91.70
15750;BME280;7976;52.526;13.326;2022-11-20T04:44:05;100647.38;;;2.16;91.29
15750;BME280;7976;52.526;13.326;2022-11-20T04:46:35;100642.22;;;2.16;91.40
15750;BME280;7976;52.526;13.326;2022-11-20T04:49:02;100643.06;;;2.21;91.55
15750;BME280;7976;52.526;13.326;2022-11-20T04:51:30;100641.34;;;2.20;91.37
15750;BME280;7976;52.526;13.326;2022-11-20T04:53:57;100640.50;;;2.17;91.17
15750;BME280;7976;52.526;13.326;2022-11-20T04:56:24;100648.22;;;2.20;91.43
15750;BME280;7976;52.526;13.326;2022-11-20T04:58:51;100643.09;;;2.17;91.12
15750;BME280;7976;52.526;13.326;2022-11-20T05:01:21;100635.34;;;2.15;91.39
15750;BME280;7976;52.526;13.326;2022-11-20T05:03:49;100633.63;;;2.14;91.38
15750;BME280;7976;52.526;13.326;2022-11-20T05:06:20;100629.31;;;2.15;91.42
15750;BME280;7976;52.526;13.326;2022-11-20T05:08:47;100631.06;;;2.10;91.48
15750;BME280;7976;52.526;13.326;2022-11-20T05:11:17;100625.94;;;2.07;91.24
15750;BME280;7976;52.526;13.326;2022-11-20T05:13:44;100620.78;;;2.05;91.27
15750;BME280;7976;52.526;13.326;2022-11-20T05:16:14;100619.91;;;2.08;91.33
15750;BME280;7976;52.526;13.326;2022-11-20T05:18:43;100613.03;;;2.08;91.48
15750;BME280;7976;52.526;13.326;2022-11-20T05:21:10;100613.88;;;2.10;91.38
15750;BME280;7976;52.526;13.326;2022-11-20T05:23:38;100619.03;;;2.13;91.35
15750;BME280;7976;52.526;13.326;2022-11-20T05:26:08;100612.16;;;2.11;91.37
15750;BME280;7976;52.526;13.326;2022-11-20T05:28:38;100612.16;;;2.14;91.50
15750;BME280;7976;52.526;13.326;2022-11-20T05:31:06;100618.13;;;2.19;91.50
15750;BME280;7976;52.526;13.326;2022-11-20T05:33:35;100610.41;;;2.19;91.31
15750;BME280;7976;52.526;13.326;2022-11-20T05:36:04;100613.81;;;2.19;91.42
15750;BME280;7976;52.526;13.326;2022-11-20T05:38:31;100615.53;;;2.23;91.45
15750;BME280;7976;52.526;13.326;2022-11-20T05:41:04;100618.06;;;2.29;91.54
15750;BME280;7976;52.526;13.326;2022-11-20T05:43:33;100611.16;;;2.31;91.48
15750;BME280;7976;52.526;13.326;2022-11-20T05:46:00;100609.41;;;2.36;91.37
15750;BME280;7976;52.526;13.326;2022-11-20T05:48:27;100610.28;;;2.35;91.59
15750;BME280;7976;52.526;13.326;2022-11-20T05:50:54;100602.56;;;2.35;91.22
15750;BME280;7976;52.526;13.326;2022-11-20T05:53:24;100606.81;;;2.38;91.03
15750;BME280;7976;52.526;13.326;2022-11-20T05:55:59;100605.13;;;2.37;91.00
15750;BME280;7976;52.526;13.326;2022-11-20T05:58:26;100599.97;;;2.35;90.96
15750;BME280;7976;52.526;13.326;2022-11-20T06:00:54;100605.97;;;2.34;91.12
15750;BME280;7976;52.526;13.326;2022-11-20T06:03:21;100610.31;;;2.32;90.97
15750;BME280;7976;52.526;13.326;2022-11-20T06:05:48;100603.41;;;2.33;91.07
15750;BME280;7976;52.526;13.326;2022-11-20T06:08:15;100600.00;;;2.31;90.99
15750;BME280;7976;52.526;13.326;2022-11-20T06:10:44;100590.56;;;2.25;90.70
15750;BME280;7976;52.526;13.326;2022-11-20T06:13:10;100596.59;;;2.27;90.98
15750;BME280;7976;52.526;13.326;2022-11-20T06:15:37;100599.16;;;2.30;91.03
15750;BME280;7976;52.526;13.326;2022-11-20T06:18:04;100596.53;;;2.35;91.10
15750;BME280;7976;52.526;13.326;2022-11-20T06:20:31;100603.38;;;2.39;90.86
15750;BME280;7976;52.526;13.326;2022-11-20T06:22:58;100595.66;;;2.37;90.80
15750;BME280;7976;52.526;13.326;2022-11-20T06:25:25;100601.66;;;2.41;90.97
15750;BME280;7976;52.526;13.326;2022-11-20T06:27:53;100600.78;;;2.43;90.57
15750;BME280;7976;52.526;13.326;2022-11-20T06:30:20;100596.50;;;2.41;90.42
15750;BME280;7976;52.526;13.326;2022-11-20T06:32:47;100600.78;;;2.43;90.52
15750;BME280;7976;52.526;13.326;2022-11-20T06:35:14;100597.31;;;2.47;90.75
15750;BME280;7976;52.526;13.326;2022-11-20T06:37:42;100606.75;;;2.50;90.35
15750;BME280;7976;52.526;13.326;2022-11-20T06:40:11;100599.88;;;2.49;90.71
15750;BME280;7976;52.526;13.326;2022-11-20T06:42:38;100602.50;;;2.46;90.43
15750;BME280;7976;52.526;13.326;2022-11-20T06:45:08;100593.91;;;2.41;90.49
15750;BME280;7976;52.526;13.326;2022-11-20T06:47:35;100590.50;;;2.34;90.43
15750;BME280;7976;52.526;13.326;2022-11-20T06:50:02;100590.50;;;2.34;90.62
15750;BME280;7976;52.526;13.326;2022-11-20T06:52:29;100589.66;;;2.35;90.61
15750;BME280;7976;52.526;13.326;2022-11-20T06:54:55;100591.41;;;2.30;90.44
15750;BME280;7976;52.526;13.326;2022-11-20T06:57:22;100599.16;;;2.24;90.30
15750;BME280;7976;52.526;13.326;2022-11-20T06:59:49;100590.59;;;2.21;90.45
15750;BME280;7976;52.526;13.326;2022-11-20T07:02:17;100584.59;;;2.20;90.58
15750;BME280;7976;52.526;13.326;2022-11-20T07:04:44;100594.00;;;2.24;90.84
15750;BME280;7976;52.526;13.326;2022-11-20T07:07:11;100596.56;;;2.24;90.55
15750;BME280;7976;52.526;13.326;2022-11-20T07:09:38;100590.59;;;2.19;90.13
15750;BME280;7976;52.526;13.326;2022-11-20T07:12:05;100586.25;;;2.24;90.84
15750;BME280;7976;52.526;13.326;2022-11-20T07:14:32;100585.41;;;2.25;90.48
15750;BME280;7976;52.526;13.326;2022-11-20T07:16:59;100591.41;;;2.24;90.77
15750;BME280;7976;52.526;13.326;2022-11-20T07:19:34;100593.13;;;2.30;90.83
15750;BME280;7976;52.526;13.326;2022-11-20T07:22:01;100593.97;;;2.30;90.54
15750;BME280;7976;52.526;13.326;2022-11-20T07:24:28;100587.97;;;2.28;90.39
15750;BME280;7976;52.526;13.326;2022-11-20T07:26:55;100590.53;;;2.30;90.64
15750;BME280;7976;52.526;13.326;2022-11-20T07:29:22;100575.94;;;2.27;90.33
15750;BME280;7976;52.526;13.326;2022-11-20T07:31:49;100587.09;;;2.32;90.44
15750;BME280;7976;52.526;13.326;2022-11-20T07:34:16;100592.25;;;2.32;90.55
15750;BME280;7976;52.526;13.326;2022-11-20T07:36:49;100592.25;;;2.31;90.26
15750;BME280;7976;52.526;13.326;2022-11-20T07:39:18;100587.94;;;2.33;90.53
15750;BME280;7976;52.526;13.326;2022-11-20T07:41:45;100578.44;;;2.36;90.43
15750;BME280;7976;52.526;13.326;2022-11-20T07:44:12;100587.91;;;2.37;90.09
15750;BME280;7976;52.526;13.326;2022-11-20T07:46:39;100581.88;;;2.38;90.34
15750;BME280;7976;52.526;13.326;2022-11-20T07:49:07;100583.59;;;2.41;90.28
15750;BME280;7976;52.526;13.326;2022-11-20T07:51:34;100575.03;;;2.36;89.96
15750;BME280;7976;52.526;13.326;2022-11-20T07:54:02;100578.44;;;2.36;89.94
15750;BME280;7976;52.526;13.326;2022-11-20T07:56:29;100578.47;;;2.33;89.90
15750;BME280;7976;52.526;13.326;2022-11-20T07:58:56;100581.91;;;2.34;89.98
15750;BME280;7976;52.526;13.326;2022-11-20T08:01:23;100587.06;;;2.37;89.91
15750;BME280;7976;52.526;13.326;2022-11-20T08:03:50;100581.06;;;2.32;89.50
15750;BME280;7976;52.526;13.326;2022-11-20T08:06:17;100586.28;;;2.26;89.67
15750;BME280;7976;52.526;13.326;2022-11-20T08:08:45;100576.78;;;2.26;89.68
15750;BME280;7976;52.526;13.326;2022-11-20T08:11:13;100574.19;;;2.29;89.64
15750;BME280;7976;52.526;13.326;2022-11-20T08:13:58;100573.34;;;2.30;89.65
15750;BME280;7976;52.526;13.326;2022-11-20T08:16:41;100564.69;;;2.37;89.53
15750;BME280;7976;52.526;13.326;2022-11-20T08:19:08;100570.69;;;2.38;89.29
15750;BME280;7976;52.526;13.326;2022-11-20T08:21:35;100568.16;;;2.33;88.91
15750;BME280;7976;52.526;13.326;2022-11-20T08:24:03;100579.28;;;2.38;89.10
15750;BME280;7976;52.526;13.326;2022-11-20T08:26:31;100571.53;;;2.41;89.04
15750;BME280;7976;52.526;13.326;2022-11-20T08:28:58;100581.84;;;2.41;88.82
15750;BME280;7976;52.526;13.326;2022-11-20T08:31:27;100580.16;;;2.39;88.57
15750;BME280;7976;52.526;13.326;2022-11-20T08:33:54;100570.72;;;2.33;88.51
15750;BME280;7976;52.526;13.326;2022-11-20T08:36:23;100557.84;;;2.30;88.44
15750;BME280;7976;52.526;13.326;2022-11-20T08:38:52;100559.63;;;2.24;88.55
15750;BME280;7976;52.526;13.326;2022-11-20T08:41:22;100551.06;;;2.19;88.43
15750;BME280;7976;52.526;13.326;2022-11-20T08:44:03;100547.56;;;2.21;88.56
15750;BME280;7976;52.526;13.326;2022-11-20T08:46:35;100561.28;;;2.32;88.76
15750;BME280;7976;52.526;13.326;2022-11-20T08:49:03;100547.50;;;2.33;88.43
15750;BME280;7976;52.526;13.326;2022-11-20T08:51:31;100550.88;;;2.41;88.16
15750;BME280;7976;52.526;13.326;2022-11-20T08:53:59;100554.38;;;2.37;87.71
15750;BME280;7976;52.526;13.326;2022-11-20T08:56:31;100568.09;;;2.39;88.05
15750;BME280;7976;52.526;13.326;2022-11-20T08:59:00;100557.78;;;2.36;87.86
15750;BME280;7976;52.526;13.326;2022-11-20T09:01:29;100571.50;;;2.44;87.87
15750;BME280;7976;52.526;13.326;2022-11-20T09:03:56;100562.94;;;2.39;88.11
15750;BME280;7976;52.526;13.326;2022-11-20T09:06:23;100573.31;;;2.33;87.79
15750;BME280;7976;52.526;13.326;2022-11-20T09:08:52;100574.25;;;2.23;87.73
15750;BME280;7976;52.526;13.326;2022-11-20T09:11:19;100574.25;;;2.22;87.88
15750;BME280;7976;52.526;13.326;2022-11-20T09:13:47;100564.81;;;2.16;87.74
15750;BME280;7976;52.526;13.326;2022-11-20T09:16:15;100566.53;;;2.17;88.10
15750;BME280;7976;52.526;13.326;2022-11-20T09:18:42;100565.66;;;2.20;88.04
15750;BME280;7976;52.526;13.326;2022-11-20T09:21:12;100575.13;;;2.22;88.12
15750;BME280;7976;52.526;13.326;2022-11-20T09:23:40;100570.78;;;2.24;88.05
15750;BME280;7976;52.526;13.326;2022-11-20T09:26:10;100575.06;;;2.28;88.36
15750;BME280;7976;52.526;13.326;2022-11-20T09:28:39;100577.59;;;2.34;88.22
15750;BME280;7976;52.526;13.326;2022-11-20T09:31:13;100579.28;;;2.40;88.16
15750;BME280;7976;52.526;13.326;2022-11-20T09:33:45;100572.38;;;2.45;88.29
15750;BME280;7976;52.526;13.326;2022-11-20T09:36:27;100562.91;;;2.45;87.91
15750;BME280;7976;52.526;13.326;2022-11-20T09:38:53;100569.75;;;2.52;87.88
15750;BME280;7976;52.526;13.326;2022-11-20T09:41:49;100574.81;;;2.62;87.82
15750;BME280;7976;52.526;13.326;2022-11-20T09:44:37;100571.34;;;2.66;87.94
15750;BME280;7976;52.526;13.326;2022-11-20T09:47:14;100563.56;;;2.69;87.70
15750;BME280;7976;52.526;13.326;2022-11-20T09:50:12;100556.66;;;2.71;87.48
15750;BME280;7976;52.526;13.326;2022-11-20T09:52:54;100554.97;;;2.65;87.33
15750;BME280;7976;52.526;13.326;2022-11-20T09:55:30;100559.25;;;2.72;87.55
15750;BME280;7976;52.526;13.326;2022-11-20T09:58:00;100560.00;;;2.82;87.63
15750;BME280;7976;52.526;13.326;2022-11-20T10:00:29;100552.16;;;2.94;87.27
15750;BME280;7976;52.526;13.326;2022-11-20T10:03:02;100553.81;;;2.99;87.03
15750;BME280;7976;52.526;13.326;2022-11-20T10:05:40;100537.50;;;2.96;86.91
15750;BME280;7976;52.526;13.326;2022-11-20T10:08:17;100540.03;;;2.99;86.91
15750;BME280;7976;52.526;13.326;2022-11-20T10:10:54;100541.88;;;2.89;86.50
15750;BME280;7976;52.526;13.326;2022-11-20T10:13:42;100546.28;;;2.77;86.57
15750;BME280;7976;52.526;13.326;2022-11-20T10:16:34;100529.06;;;2.76;86.66
15750;BME280;7976;52.526;13.326;2022-11-20T10:19:25;100539.38;;;2.77;87.06
15750;BME280;7976;52.526;13.326;2022-11-20T10:22:16;100533.34;;;2.78;86.42
15750;BME280;7976;52.526;13.326;2022-11-20T10:25:13;100533.34;;;2.80;86.80
15750;BME280;7976;52.526;13.326;2022-11-20T10:28:04;100515.31;;;2.75;86.38
15750;BME280;7976;52.526;13.326;2022-11-20T10:30:41;100515.25;;;2.83;86.68
15750;BME280;7976;52.526;13.326;2022-11-20T10:33:17;100516.09;;;2.85;86.85
15750;BME280;7976;52.526;13.326;2022-11-20T10:35:52;100510.84;;;2.91;86.91
15750;BME280;7976;52.526;13.326;2022-11-20T10:38:33;100506.47;;;2.97;86.76
15750;BME280;7976;52.526;13.326;2022-11-20T10:41:06;100511.72;;;2.90;86.32
15750;BME280;7976;52.526;13.326;2022-11-20T10:44:01;100511.66;;;2.96;86.96
15750;BME280;7976;52.526;13.326;2022-11-20T10:46:37;100515.91;;;3.03;86.84
15750;BME280;7976;52.526;13.326;2022-11-20T10:49:14;100505.59;;;3.00;86.45
15750;BME280;7976;52.526;13.326;2022-11-20T10:51:57;100501.25;;;3.05;86.37
15750;BME280;7976;52.526;13.326;2022-11-20T10:54:41;100499.53;;;3.01;86.17
15750;BME280;7976;52.526;13.326;2022-11-20T10:57:31;100502.91;;;3.07;86.48
15750;BME280;7976;52.526;13.326;2022-11-20T11:00:06;100507.13;;;3.16;86.30
15750;BME280;7976;52.526;13.326;2022-11-20T11:02:39;100507.81;;;3.28;86.18
15750;BME280;7976;52.526;13.326;2022-11-20T11:05:22;100506.91;;;3.34;85.95
15750;BME280;7976;52.526;13.326;2022-11-20T11:07:54;100499.97;;;3.37;85.59
15750;BME280;7976;52.526;13.326;2022-11-20T11:10:28;100496.47;;;3.43;85.77
15750;BME280;7976;52.526;13.326;2022-11-20T11:12:58;100505.81;;;3.54;85.76
15750;BME280;7976;52.526;13.326;2022-11-20T11:15:29;100499.78;;;3.52;85.59
15750;BME280;7976;52.526;13.326;2022-11-20T11:17:57;100502.41;;;3.51;85.48
15750;BME280;7976;52.526;13.326;2022-11-20T11:20:25;100499.81;;;3.51;85.68
15750;BME280;7976;52.526;13.326;2022-11-20T11:22:55;100500.75;;;3.44;85.18
15750;BME280;7976;52.526;13.326;2022-11-20T11:25:29;100498.16;;;3.44;85.41
15750;BME280;7976;52.526;13.326;2022-11-20T11:28:02;100501.56;;;3.49;85.07
15750;BME280;7976;52.526;13.326;2022-11-20T11:30:41;100499.91;;;3.45;84.96
15750;BME280;7976;52.526;13.326;2022-11-20T11:33:12;100495.63;;;3.41;84.92
15750;BME280;7976;52.526;13.326;2022-11-20T11:35:47;100497.44;;;3.34;84.89
15750;BME280;7976;52.526;13.326;2022-11-20T11:38:21;100484.69;;;3.19;84.51
15750;BME280;7976;52.526;13.326;2022-11-20T11:40:53;100486.53;;;3.10;84.87
15750;BME280;7976;52.526;13.326;2022-11-20T11:43:25;100489.09;;;3.13;84.64
15750;BME280;7976;52.526;13.326;2022-11-20T11:46:30;100487.31;;;3.16;84.80
15750;BME280;7976;52.526;13.326;2022-11-20T11:49:08;100489.09;;;3.13;84.60
15750;BME280;7976;52.526;13.326;2022-11-20T11:51:52;100494.31;;;3.05;84.53
15750;BME280;7976;52.526;13.326;2022-11-20T11:54:29;100490.09;;;2.98;84.71
15750;BME280;7976;52.526;13.326;2022-11-20T11:57:07;100485.03;;;2.89;85.05
15750;BME280;7976;52.526;13.326;2022-11-20T11:59:53;100483.34;;;2.85;84.89
15750;BME280;7976;52.526;13.326;2022-11-20T12:02:35;100483.31;;;2.88;85.46
15750;BME280;7976;52.526;13.326;2022-11-20T12:05:16;100475.53;;;2.93;85.92
15750;BME280;7976;52.526;13.326;2022-11-20T12:07:47;100479.75;;;3.00;85.86
15750;BME280;7976;52.526;13.326;2022-11-20T12:10:33;100476.22;;;3.07;85.97
15750;BME280;7976;52.526;13.326;2022-11-20T12:13:22;100469.25;;;3.13;86.23
15750;BME280;7976;52.526;13.326;2022-11-20T12:15:53;100469.25;;;3.15;86.11
15750;BME280;7976;52.526;13.326;2022-11-20T12:18:22;100464.91;;;3.15;86.32
15750;BME280;7976;52.526;13.326;2022-11-20T12:21:06;100474.38;;;3.18;86.25
15750;BME280;7976;52.526;13.326;2022-11-20T12:24:00;100459.81;;;3.11;86.05
15750;BME280;7976;52.526;13.326;2022-11-20T12:26:45;100463.25;;;3.11;86.08
15750;BME280;7976;52.526;13.326;2022-11-20T12:29:35;100462.34;;;3.14;85.81
15750;BME280;7976;52.526;13.326;2022-11-20T12:32:34;100452.00;;;3.14;85.80
15750;BME280;7976;52.526;13.326;2022-11-20T12:35:24;100460.63;;;3.14;85.69
15750;BME280;7976;52.526;13.326;2022-11-20T12:38:20;100440.06;;;3.05;85.52
15750;BME280;7976;52.526;13.326;2022-11-20T12:41:05;100444.31;;;3.11;85.33
15750;BME280;7976;52.526;13.326;2022-11-20T12:43:47;100446.84;;;3.14;85.54
15750;BME280;7976;52.526;13.326;2022-11-20T12:46:46;100453.72;;;3.16;85.14
15750;BME280;7976;52.526;13.326;2022-11-20T12:49:32;100446.78;;;3.20;85.12
15750;BME280;7976;52.526;13.326;2022-11-20T12:52:20;100445.91;;;3.21;84.85
15750;BME280;7976;52.526;13.326;2022-11-20T12:55:11;100449.28;;;3.26;84.97
15750;BME280;7976;52.526;13.326;2022-11-20T12:57:49;100439.75;;;3.29;85.10
15750;BME280;7976;52.526;13.326;2022-11-20T13:00:20;100442.22;;;3.38;84.85
15750;BME280;7976;52.526;13.326;2022-11-20T13:03:33;100434.50;;;3.35;84.64
15750;BME280;7976;52.526;13.326;2022-11-20T13:06:14;100429.44;;;3.28;84.58
15750;BME280;7976;52.526;13.326;2022-11-20T13:08:48;100434.66;;;3.23;84.41
15750;BME280;7976;52.526;13.326;2022-11-20T13:11:27;100434.66;;;3.25;84.74
15750;BME280;7976;52.526;13.326;2022-11-20T13:14:13;100423.50;;;3.21;84.57
15750;BME280;7976;52.526;13.326;2022-11-20T13:16:52;100434.72;;;3.19;84.16
15750;BME280;7976;52.526;13.326;2022-11-20T13:19:23;100426.19;;;3.12;84.29
15750;BME280;7976;52.526;13.326;2022-11-20T13:21:50;100430.53;;;3.09;84.14
15750;BME280;7976;52.526;13.326;2022-11-20T13:24:24;100430.53;;;3.09;84.33
15750;BME280;7976;52.526;13.326;2022-11-20T13:27:21;100431.38;;;3.11;83.95